Central Fund of Canada Limited (USA) (NYSEMKT:CEF)

CAPS Rating: 3 out of 5

Provides an investment alternative for investors interested in holding marketable gold and silver related investments. Invests primarily in long-term holdings of gold and silver bullion.

Results 1 - 99 of 734 : 1 2 3 4 5 6 7 8 Next »
Top
Pick
Member Name Member
Rating
Start
Date
Call Time
Frame
Start
Price
Stock
Gain
Index
Gain
Score Commentary
OnyongJun 92.21 7/25/2014 Outperform 3Y $14.19 -0.04% 0% -0.04 0 Comment
JessieL < 20 6/25/2014 Outperform 5Y $14.33 -1.05% +1.79% -2.83 0 Comment
alkusari 68.23 6/24/2014 Outperform 5Y $14.52 -2.34% +1.12% -3.46 0 Comment
bocacampeon 94.57 3/31/2014 Outperform 5Y $13.85 +2.38% +5.93% -3.55 0 Comment
Momentum22 29.69 3/18/2014 Outperform 5Y $14.74 -3.80% +5.38% -9.18 0 Comment
goingdown < 20 3/12/2014 Outperform 5Y $14.84 -4.42% +5.99% -10.41 0 Comment
Xucolat 56.25 11/17/2009 2/17/2014 Outperform 5Y $13.94 +1.72% +78.25% -76.54 1 Comment
unixopsys 44.17 1/22/2014 Outperform 1Y $13.57 +4.50% +7.22% -2.73 0 Comment
wackyfunster 81.83 1/16/2014 Outperform 5Y $13.67 +3.73% +7.29% -3.56 0 Comment
2win < 20 1/14/2014 Outperform NS $13.87 +2.24% +8.47% -6.24 1 Comment
timomimo 88.24 1/2/2014 Outperform 5Y $13.58 +4.42% +8.10% -3.68 0 Comment
BrodyBorder 28.55 12/5/2013 Outperform 5Y $13.30 +6.62% +10.23% -3.61 0 Comment
emptylarder 34.16 11/13/2013 Outperform 5Y $13.98 +1.43% +11.38% -9.95 0 Comment
crashtestcapital 55.72 10/29/2013 Outperform 3Y $15.22 -6.83% +11.81% -18.64 0 Comment
seakat45 < 20 10/14/2013 Outperform 5Y $14.15 +0.21% +16.85% -16.64 0 Comment
BruceInCola 98.49 9/24/2013 Outperform 5Y $14.40 -1.53% +16.37% -17.91 0 Comment
maxy88 28.80 9/10/2013 Outperform 5Y $15.55 -8.81% +17.36% -26.17 0 Comment
mistermiranga 97.68 8/27/2013 Outperform 5Y $16.63 -14.71% +20.51% -35.22 0 Comment
kurtdabear 32.02 8/23/2013 Outperform 5Y $16.21 -12.52% +18.89% -31.41 1 Comment
aguadaboca 32.26 7/30/2013 Outperform 5Y $14.42 -1.67% +16.92% -18.59 0 Comment
sail2brasil 33.40 7/24/2013 Outperform 5Y $14.82 -4.32% +17.10% -21.42 0 Comment
winebroker2000 21.86 7/24/2013 Outperform 5Y $14.80 -4.19% +16.45% -20.64 0 Comment
Rangergold67 < 20 7/15/2013 Outperform 5Y $14.19 -0.08% +17.71% -17.79 0 Comment
bigmacm22 < 20 7/12/2013 Outperform 5Y $14.15 +0.21% +18.12% -17.91 0 Comment
cashsage 29.31 7/8/2013 Outperform 5Y $13.62 +4.10% +20.62% -16.52 0 Comment
Adam1226 < 20 1/19/2010 7/6/2013 Outperform 5Y $14.35 -1.18% +72.62% -73.80 1 Comment
Swimms 75.11 6/21/2013 Outperform 5Y $14.14 +0.28% +24.44% -24.16 0 Comment
Stas3000 87.63 6/18/2013 Outperform 5Y $15.49 -8.46% +19.98% -28.44 0 Comment
Momentum21 93.99 5/24/2013 Outperform 5Y $15.71 -9.74% +20.22% -29.95 0 Comment
u2monee < 20 5/21/2013 Outperform 5Y $15.53 -8.69% +18.34% -27.03 0 Comment
SellOrNotinMay < 20 5/2/2013 Outperform 3M $16.82 -15.69% +23.80% -39.49 0 Comment
iannnn 28.97 4/19/2013 Outperform 5Y $16.30 -13.00% +27.97% -40.98 0 Comment
binve < 20 4/18/2013 Outperform NS $16.13 -12.09% +27.87% -39.95 0 Comment
kainvest 47.72 4/16/2013 Outperform 1Y $16.47 -13.90% +26.11% -40.01 1 Comment
vinelli 76.03 4/15/2013 Outperform 5Y $16.03 -11.55% +25.25% -36.80 0 Comment
goldminer11 < 20 4/15/2013 Outperform 5Y $16.08 -11.81% +25.20% -37.02 0 Comment
TheBest70 < 20 3/22/2013 Outperform 5Y $19.76 -28.23% +27.38% -55.61 0 Comment
Terok1313 31.05 3/8/2013 Outperform 3Y $19.56 -27.49% +27.33% -54.83 0 Comment
tinyworld < 20 3/7/2013 Outperform 1Y $19.74 -28.16% +27.81% -55.96 1 Comment
rzld36 29.93 3/6/2013 Outperform 5Y $19.46 -27.12% +27.69% -54.82 0 Comment
VeryShiny < 20 3/5/2013 Outperform 3M $19.65 -27.83% +28.67% -56.50 0 Comment
OoohShiny < 20 2/25/2013 Outperform 3M $20.01 -29.12% +30.55% -59.68 0 Comment
Gloriness < 20 2/21/2013 Outperform 3M $19.63 -27.75% +31.31% -59.07 0 Comment
IndianaLarry < 20 2/19/2013 Underperform 3M $20.17 -29.69% +29.76% +59.45 0 Comment
This player feels very strongly about this pick and has marked it a Top Pick. Top Picks do not affect a player’s score. rd80 98.46 2/4/2013 Outperform 5Y $21.49 -34.00% +31.53% -65.54 1 Comment
JeffersonAdams 87.30 3/26/2008 1/29/2013 Outperform 5Y $13.26 +6.96% +52.50% -45.53 0 Comment
galpick 41.54 10/1/2008 1/27/2013 Outperform 5Y $10.95 +29.54% +76.14% -46.60 0 Comment
Vince1172 45.10 1/24/2013 Outperform 5Y $21.90 -35.24% +32.56% -67.80 0 Comment
piesyor < 20 1/22/2013 Underperform 1Y $21.94 -35.36% +33.30% +68.65 0 Comment
jerryguru69 94.85 12/13/2012 Underperform 5Y $22.41 -36.71% +37.86% +74.57 0 Comment
bolthole22 < 20 11/27/2012 Outperform 5Y $23.13 -38.69% +40.65% -79.33 0 Comment
Adenovir 79.23 8/31/2007 11/26/2012 Outperform NS $9.07 +56.26% +40.96% +15.30 1 Comment
acesurewould < 20 11/19/2012 Outperform 5Y $22.88 -38.01% +42.82% -80.83 0 Comment
JoeleneW 75.40 10/19/2007 10/1/2012 Outperform 5Y $10.08 +40.67% +35.31% +5.37 0 Comment
whatevmatil < 20 9/28/2012 Outperform 5Y $23.79 -40.40% +37.22% -77.62 0 Comment
stockdatamaster 87.53 9/19/2012 Outperform 5Y $23.86 -40.58% +34.70% -75.28 0 Comment
gman444 28.84 9/5/2012 Outperform 5Y $22.34 -36.51% +40.14% -76.65 0 Comment
puccini3005 29.64 6/24/2009 8/27/2012 Outperform 3Y $11.75 +20.72% +120.45% -99.73 1 Comment
tcpprog < 20 8/24/2012 Outperform 5Y $21.32 -33.48% +40.92% -74.40 0 Comment
oldfashionedway 35.57 8/23/2011 8/22/2012 Outperform 3Y $25.13 -43.58% +71.69% -115.27 0 Comment
Moekie < 20 8/6/2012 Outperform 5Y $20.14 -29.58% +41.12% -70.70 0 Comment
This player feels very strongly about this pick and has marked it a Top Pick. Top Picks do not affect a player’s score. DarthMaul09 29.71 7/31/2012 Outperform 5Y $20.10 -29.45% +42.92% -72.37 1 Comment
rock338xxx < 20 6/7/2012 Outperform 5Y $20.98 -32.40% +48.14% -80.54 0 Comment
DanCooper76 < 20 6/1/2012 Outperform 5Y $19.62 -27.72% +53.12% -80.84 1 Comment
VanWilder < 20 5/11/2012 Outperform 5Y $19.79 -28.34% +45.28% -73.62 0 Comment
jkens < 20 10/29/2007 5/5/2012 Outperform 5Y $10.36 +36.89% +34.58% +2.31 0 Comment
marcd77 < 20 5/2/2012 Outperform 3Y $20.98 -32.40% +41.31% -73.71 0 Comment
phatchips767 < 20 4/24/2012 Outperform 1Y $21.09 -32.75% +44.42% -77.17 1 Comment
RockyMountainMan 98.34 4/10/2012 Outperform 5Y $21.39 -33.70% +43.33% -77.02 0 Comment
motleyanimal 89.80 2/29/2012 Outperform NS $22.93 -38.17% +44.22% -82.38 0 Comment
eeibbay < 20 11/30/2011 Outperform 5Y $22.30 -36.43% +59.37% -95.80 0 Comment
elboxeo < 20 11/25/2011 Outperform 5Y $21.41 -33.76% +69.89% -103.65 0 Comment
RallyCry < 20 11/23/2011 Outperform 5Y $21.69 -34.61% +67.46% -102.07 0 Comment
jdill23 26.16 11/22/2011 Outperform 1Y $22.05 -35.68% +66.07% -101.75 0 Comment
G8BigBoom 68.54 11/14/2011 Underperform 5Y $23.37 -39.33% +56.68% +96.02 0 Comment
LZAG < 20 11/11/2011 Outperform 5Y $23.38 -39.36% +57.13% -96.49 0 Comment
dss1343 < 20 11/3/2011 Outperform 1Y $23.02 -38.41% +58.53% -96.94 0 Comment
eldonbmyrtlbch < 20 10/28/2011 Outperform 3Y $23.26 -39.05% +54.47% -93.52 0 Comment
taylor2123 < 20 10/20/2011 Outperform 5Y $20.40 -30.49% +62.99% -93.47 0 Comment
Teknowizz 96.95 10/10/2011 Outperform 5Y $21.60 -34.34% +68.01% -102.36 0 Comment
dyskinetic 28.63 10/4/2011 Outperform 5Y $20.18 -29.73% +81.34% -111.07 0 Comment
JFiege 29.88 10/4/2011 Outperform 5Y $20.20 -29.80% +80.93% -110.73 0 Comment
squirrelgiggin 99.79 10/3/2011 Underperform 5Y $21.21 -33.14% +75.77% +108.90 0 Comment
Spyrig < 20 9/30/2011 Outperform 5Y $20.87 -32.05% +72.53% -104.58 0 Comment
veronafonte < 20 9/28/2011 Outperform 1Y $20.57 -31.08% +70.55% -101.63 0 Comment
mountaincouger 33.39 9/27/2011 Outperform 5Y $22.06 -35.71% +66.07% -101.78 0 Comment
Merlyn144 29.27 9/26/2011 Outperform 5Y $20.95 -32.31% +73.07% -105.38 0 Comment
cvdynasty2 99.84 9/26/2011 Outperform 5Y $21.01 -32.51% +72.14% -104.65 0 Comment
Fudex < 20 9/26/2011 Outperform 5Y $20.39 -30.45% +72.52% -102.97 0 Comment
This player feels very strongly about this pick and has marked it a Top Pick. Top Picks do not affect a player’s score. SamTheHobbit 30.07 9/23/2011 Outperform 5Y $20.99 -32.44% +74.57% -107.01 0 Comment
cvdynasty 99.95 9/23/2011 Outperform 5Y $20.99 -32.44% +74.57% -107.01 0 Comment
cecamadocv2 99.97 9/23/2011 Outperform 5Y $21.14 -32.92% +73.93% -106.84 0 Comment
EGTalbot < 20 9/23/2011 Outperform 3Y $21.70 -34.64% +74.36% -109.00 0 Comment
imobillc < 20 9/22/2011 Outperform 5Y $23.89 -40.65% +74.59% -115.24 0 Comment
pfoods6 < 20 9/20/2011 Outperform 1Y $25.18 -43.69% +64.08% -107.77 0 Comment
scluffman < 20 9/22/2010 9/17/2011 Outperform 3Y $16.34 -13.19% +74.20% -87.40 0 Comment
MathMusic 89.59 8/9/2011 9/15/2011 Outperform 1Y $22.88 -38.02% +72.53% -110.55 1 Comment
stationfool 52.66 9/14/2011 Outperform 5Y $25.05 -43.40% +66.50% -109.90 1 Comment
peachberrytea 78.04 9/13/2011 Outperform NS $24.55 -42.25% +68.92% -111.16 0 Comment

Featured Broker Partners


Advertisement